Time;durP1;ratioP1;P1;durP2;ratioP2;P2;SDS_P1;SDS_P2;PMS_P1;PMS_P2;Temp;Humidity;BMP_temperature;BMP_pressure;BME280_temperature;BME280_humidity;BME280_pressure;Samples;Min_cycle;Max_cycle;Signal;HPM_P1;HPM_P2
2022/04/03 00:02:26;;;;;;;1.10;1.10;;;0.60;98.10;;;;;;6153643;28;20570;-79
2022/04/03 00:05:35;;;;;;;2.87;1.10;;;0.60;98.30;;;;;;6138663;29;20458;-79
2022/04/03 00:08:41;;;;;;;1.00;1.00;;;0.60;98.30;;;;;;6138044;29;20300;-79
2022/04/03 00:11:47;;;;;;;1.20;1.10;;;0.50;98.50;;;;;;6138367;28;20467;-79
2022/04/03 00:14:54;;;;;;;1.63;1.00;;;0.60;98.60;;;;;;6151208;28;20305;-79
2022/04/03 00:17:59;;;;;;;2.63;1.20;;;0.50;98.60;;;;;;6185998;28;20300;-79
2022/04/03 00:21:05;;;;;;;1.00;1.00;;;0.50;98.40;;;;;;6185863;28;20290;-79
2022/04/03 00:24:11;;;;;;;1.00;1.00;;;0.50;98.50;;;;;;6161851;28;20330;-79
2022/04/03 00:27:20;;;;;;;1.00;1.00;;;0.50;98.50;;;;;;6184529;28;20287;-80
2022/04/03 00:30:25;;;;;;;4.73;1.10;;;0.60;98.60;;;;;;6162341;28;20319;-79
2022/04/03 00:33:31;;;;;;;3.13;1.10;;;0.50;98.90;;;;;;6185476;28;20297;-79
2022/04/03 00:36:36;;;;;;;1.00;1.00;;;0.50;98.70;;;;;;6186609;28;20294;-79
2022/04/03 00:39:41;;;;;;;1.23;1.10;;;0.50;98.80;;;;;;6185231;28;20469;-79
2022/04/03 00:42:48;;;;;;;1.10;1.10;;;0.50;99.50;;;;;;6161018;28;20294;-80
2022/04/03 00:45:54;;;;;;;1.20;1.20;;;0.40;99.30;;;;;;6161658;28;20317;-80
2022/04/03 00:49:00;;;;;;;1.47;1.00;;;0.40;99.60;;;;;;6162271;28;20298;-80
2022/04/03 00:52:08;;;;;;;1.17;1.10;;;0.40;99.80;;;;;;6162177;28;20296;-80
2022/04/03 00:55:15;;;;;;;1.20;1.20;;;0.40;99.70;;;;;;6162016;28;20299;-80
2022/04/03 00:58:23;;;;;;;1.03;1.03;;;0.40;99.90;;;;;;6192173;28;20461;-80
2022/04/03 01:01:29;;;;;;;1.07;1.00;;;0.40;99.90;;;;;;6162176;28;20457;-80
2022/04/03 01:04:37;;;;;;;1.00;1.00;;;0.30;99.90;;;;;;6161963;28;20293;-80
2022/04/03 01:07:42;;;;;;;1.03;1.03;;;0.30;99.90;;;;;;6169388;28;20294;-80
2022/04/03 01:10:47;;;;;;;2.30;1.10;;;0.30;99.90;;;;;;6160125;28;20297;-80
2022/04/03 01:13:54;;;;;;;1.00;1.00;;;0.30;99.90;;;;;;6161464;28;20302;-80
2022/04/03 01:17:01;;;;;;;1.00;1.00;;;0.30;99.90;;;;;;6144480;28;20298;-80
2022/04/03 01:20:08;;;;;;;1.03;1.03;;;0.30;99.90;;;;;;6161467;29;20298;-80
2022/04/03 01:23:16;;;;;;;1.27;1.03;;;0.30;99.90;;;;;;6161172;29;20340;-80
2022/04/03 01:26:24;;;;;;;1.50;1.00;;;0.40;99.90;;;;;;6162058;29;20298;-80
2022/04/03 01:29:29;;;;;;;1.07;1.07;;;0.40;99.90;;;;;;6161357;28;20295;-80
2022/04/03 01:32:35;;;;;;;2.27;0.90;;;0.40;99.90;;;;;;6157779;28;20304;-80
2022/04/03 01:35:40;;;;;;;1.07;1.07;;;0.40;99.90;;;;;;6157782;28;20302;-80
2022/04/03 01:38:46;;;;;;;1.00;1.00;;;0.40;99.90;;;;;;6165367;28;20317;-80
2022/04/03 01:41:54;;;;;;;1.00;1.00;;;0.40;99.90;;;;;;6165741;28;20298;-79
2022/04/03 01:45:00;;;;;;;1.70;1.20;;;0.40;99.90;;;;;;6165119;28;20302;-80
2022/04/03 01:48:08;;;;;;;1.33;0.93;;;0.40;99.90;;;;;;6165359;28;20308;-80
2022/04/03 01:51:13;;;;;;;3.27;1.17;;;0.40;99.90;;;;;;6165593;29;20295;-80
2022/04/03 01:54:19;;;;;;;1.10;1.10;;;0.40;99.90;;;;;;6164579;28;20304;-79
2022/04/03 01:57:26;;;;;;;1.20;1.10;;;0.40;99.90;;;;;;6164959;28;20322;-80
2022/04/03 02:00:32;;;;;;;0.87;0.87;;;0.30;99.90;;;;;;6166050;28;20599;-80
2022/04/03 02:03:38;;;;;;;1.20;1.20;;;0.40;99.90;;;;;;6164890;28;20299;-80
2022/04/03 02:06:43;;;;;;;1.17;0.90;;;0.40;99.90;;;;;;6165368;28;20295;-80
2022/04/03 02:09:48;;;;;;;1.03;1.03;;;0.40;99.90;;;;;;6164126;28;20466;-80
2022/04/03 02:12:55;;;;;;;1.40;1.07;;;0.30;99.90;;;;;;6179661;28;20305;-80
2022/04/03 02:16:00;;;;;;;0.90;0.90;;;0.30;99.90;;;;;;6164449;28;20469;-80
2022/04/03 02:19:05;;;;;;;1.00;1.00;;;0.30;99.90;;;;;;6164605;28;20306;-79
2022/04/03 02:22:14;;;;;;;1.27;1.00;;;0.30;99.90;;;;;;6164203;28;20302;-80
2022/04/03 02:25:19;;;;;;;0.87;0.87;;;0.30;99.90;;;;;;6164986;28;20301;-80
2022/04/03 02:28:26;;;;;;;1.00;1.00;;;0.30;99.90;;;;;;6164540;28;20298;-80
2022/04/03 02:31:31;;;;;;;2.50;1.10;;;0.30;99.90;;;;;;6164876;28;20470;-80
2022/04/03 02:34:37;;;;;;;1.30;1.20;;;0.30;99.90;;;;;;6164245;28;20302;-79
2022/04/03 02:37:48;;;;;;;0.97;0.97;;;0.30;99.90;;;;;;6164306;28;20314;-79
2022/04/03 02:40:54;;;;;;;1.10;1.00;;;0.30;99.90;;;;;;6164907;28;20310;-80
2022/04/03 02:44:00;;;;;;;1.10;1.10;;;0.20;99.90;;;;;;6138074;29;20305;-80
2022/04/03 02:47:06;;;;;;;1.00;1.00;;;0.30;99.90;;;;;;6140098;28;20318;-80
2022/04/03 02:50:16;;;;;;;1.00;1.00;;;0.30;99.90;;;;;;6164365;28;20292;-79
2022/04/03 02:53:21;;;;;;;0.93;0.90;;;0.20;99.90;;;;;;6163852;28;20290;-80
2022/04/03 02:56:26;;;;;;;1.00;0.90;;;0.20;99.90;;;;;;6156411;28;20298;-80
2022/04/03 02:59:33;;;;;;;1.50;1.50;;;0.20;99.90;;;;;;6163717;28;20471;-80
2022/04/03 03:02:39;;;;;;;1.47;1.37;;;0.20;99.90;;;;;;6160531;28;20295;-80
2022/04/03 03:05:45;;;;;;;0.87;0.87;;;0.20;99.90;;;;;;6163592;28;20477;-80
2022/04/03 03:08:51;;;;;;;0.90;0.90;;;0.20;99.90;;;;;;6163553;28;20429;-80
2022/04/03 03:11:56;;;;;;;1.60;1.00;;;0.10;99.90;;;;;;6152493;29;20294;-80
2022/04/03 03:15:05;;;;;;;0.90;0.90;;;0.10;99.90;;;;;;6155676;28;20336;-80
2022/04/03 03:18:14;;;;;;;1.00;1.00;;;0.10;99.90;;;;;;6139235;28;20300;-79
2022/04/03 03:21:21;;;;;;;0.90;0.90;;;0.10;99.90;;;;;;6138575;29;20625;-79
2022/04/03 03:24:26;;;;;;;1.00;1.00;;;0.10;99.90;;;;;;6139279;29;20299;-79
2022/04/03 03:27:32;;;;;;;1.17;1.00;;;0.10;99.90;;;;;;6153977;28;20311;-79
2022/04/03 03:30:39;;;;;;;1.10;1.10;;;0.00;99.90;;;;;;6139318;29;20295;-79
2022/04/03 03:33:45;;;;;;;1.07;1.07;;;0.00;99.90;;;;;;6139334;28;20298;-79
2022/04/03 03:36:50;;;;;;;1.00;1.00;;;0.00;99.90;;;;;;6138931;28;20298;-79
2022/04/03 03:39:55;;;;;;;1.60;1.10;;;0.00;99.90;;;;;;6128634;28;20510;-78
2022/04/03 03:43:01;;;;;;;1.00;1.00;;;-0.10;99.90;;;;;;6123050;28;20304;-79
2022/04/03 03:46:09;;;;;;;0.80;0.80;;;0.00;99.90;;;;;;6139198;28;20457;-79
2022/04/03 03:49:16;;;;;;;1.00;1.00;;;0.00;99.90;;;;;;6153265;28;20341;-79
2022/04/03 03:52:22;;;;;;;2.47;0.97;;;0.00;99.90;;;;;;6138660;28;21655;-79
2022/04/03 03:55:27;;;;;;;1.10;1.10;;;0.00;99.90;;;;;;6138617;28;20294;-79
2022/04/03 03:58:32;;;;;;;1.07;1.00;;;0.00;99.90;;;;;;6168836;28;20302;-79
2022/04/03 04:01:39;;;;;;;0.97;0.97;;;-0.10;99.90;;;;;;6139355;28;20294;-79
2022/04/03 04:04:45;;;;;;;1.00;1.00;;;-0.10;99.90;;;;;;6138444;28;20302;-79
2022/04/03 04:07:50;;;;;;;1.00;1.00;;;-0.10;99.90;;;;;;6138311;28;20306;-79
2022/04/03 04:10:57;;;;;;;2.03;1.33;;;-0.10;99.90;;;;;;6139121;28;20295;-80
2022/04/03 04:14:08;;;;;;;1.00;1.00;;;-0.10;99.90;;;;;;6138007;28;20300;-80
2022/04/03 04:17:16;;;;;;;1.60;0.90;;;-0.10;99.90;;;;;;6162130;28;20309;-80
2022/04/03 04:20:22;;;;;;;1.03;0.97;;;-0.10;99.90;;;;;;6162436;28;20305;-79
2022/04/03 04:23:27;;;;;;;1.80;1.70;;;-0.10;99.90;;;;;;6162094;28;20301;-80
2022/04/03 04:26:33;;;;;;;0.90;0.90;;;-0.10;99.90;;;;;;6162251;28;20296;-80
2022/04/03 04:29:38;;;;;;;1.20;1.00;;;-0.10;99.90;;;;;;6161918;28;20309;-80
2022/04/03 04:32:46;;;;;;;0.80;0.80;;;-0.10;99.90;;;;;;6151193;28;20306;-79
2022/04/03 04:35:52;;;;;;;1.03;1.03;;;-0.10;99.90;;;;;;6161771;28;20297;-79
2022/04/03 04:38:57;;;;;;;2.33;1.03;;;-0.10;99.90;;;;;;6145511;28;20463;-79
2022/04/03 04:42:03;;;;;;;1.03;1.00;;;-0.10;99.90;;;;;;6138059;28;20297;-80
2022/04/03 04:45:10;;;;;;;1.13;1.10;;;-0.10;99.90;;;;;;6176927;28;20302;-79
2022/04/03 04:48:23;;;;;;;2.10;1.27;;;-0.10;99.90;;;;;;6161653;28;20301;-80
2022/04/03 04:51:29;;;;;;;0.90;0.90;;;-0.10;99.90;;;;;;6145522;29;20592;-80
2022/04/03 04:54:35;;;;;;;1.00;1.00;;;-0.10;99.90;;;;;;6161847;28;20291;-80
2022/04/03 04:57:40;;;;;;;0.90;0.90;;;-0.10;99.90;;;;;;6161504;28;20453;-79
2022/04/03 05:00:45;;;;;;;2.47;0.90;;;-0.10;99.90;;;;;;6176673;28;20482;-79
2022/04/03 05:03:52;;;;;;;0.80;0.80;;;-0.10;99.90;;;;;;6161411;28;20301;-79
2022/04/03 05:06:57;;;;;;;1.00;1.00;;;-0.10;99.90;;;;;;6165953;28;20297;-79
2022/04/03 05:10:04;;;;;;;0.80;0.80;;;0.00;99.90;;;;;;6161576;29;20299;-80
2022/04/03 05:13:15;;;;;;;1.10;1.10;;;0.00;99.90;;;;;;6142510;28;20322;-79
2022/04/03 05:16:21;;;;;;;0.90;0.90;;;0.00;99.90;;;;;;6167065;28;20614;-79
2022/04/03 05:19:29;;;;;;;0.90;0.90;;;-0.10;99.90;;;;;;6153487;28;20301;-80
2022/04/03 05:22:34;;;;;;;1.10;1.10;;;0.00;99.90;;;;;;6142367;28;20343;-79
2022/04/03 05:25:40;;;;;;;0.93;0.93;;;0.00;99.90;;;;;;6172548;28;20292;-79
2022/04/03 05:28:45;;;;;;;0.93;0.87;;;0.00;99.90;;;;;;6165878;28;20302;-79
2022/04/03 05:31:51;;;;;;;1.20;1.10;;;0.00;99.90;;;;;;6166417;28;20325;-79
2022/04/03 05:34:58;;;;;;;0.80;0.80;;;0.10;99.90;;;;;;6163628;28;20301;-81
2022/04/03 05:38:03;;;;;;;1.03;1.03;;;0.10;99.90;;;;;;6166129;28;20303;-79
2022/04/03 05:41:11;;;;;;;1.07;1.00;;;0.10;99.90;;;;;;6166235;28;20349;-79
2022/04/03 05:44:17;;;;;;;1.60;0.90;;;0.20;99.90;;;;;;6165443;28;20306;-79
2022/04/03 05:47:23;;;;;;;0.90;0.90;;;0.30;99.90;;;;;;6165461;28;20568;-80
2022/04/03 05:50:30;;;;;;;0.80;0.80;;;0.40;99.90;;;;;;6166058;28;20297;-80
2022/04/03 05:53:35;;;;;;;1.20;0.90;;;0.40;99.90;;;;;;6165547;28;20572;-79
2022/04/03 05:56:41;;;;;;;3.73;0.90;;;0.40;99.90;;;;;;6164295;28;20292;-79
2022/04/03 05:59:46;;;;;;;0.80;0.80;;;0.50;99.90;;;;;;6165634;28;20569;-78
2022/04/03 06:02:53;;;;;;;1.60;0.90;;;0.50;99.90;;;;;;6165047;28;20300;-80
2022/04/03 06:06:01;;;;;;;0.90;0.90;;;0.60;99.90;;;;;;6165485;28;20292;-78
2022/04/03 06:09:06;;;;;;;1.03;1.03;;;0.60;99.90;;;;;;6165360;28;20306;-81
2022/04/03 06:12:13;;;;;;;1.90;1.80;;;0.70;99.90;;;;;;6165105;28;20300;-78
2022/04/03 06:15:19;;;;;;;1.00;1.00;;;0.80;99.90;;;;;;6152942;28;20307;-78
2022/04/03 06:18:25;;;;;;;2.10;1.10;;;0.80;99.90;;;;;;6139884;29;20303;-79
2022/04/03 06:21:32;;;;;;;0.90;0.90;;;0.90;99.90;;;;;;6155826;29;20296;-79
2022/04/03 06:24:38;;;;;;;1.10;1.10;;;0.90;99.90;;;;;;6140711;29;20471;-79
2022/04/03 06:27:43;;;;;;;1.90;0.90;;;1.00;99.90;;;;;;6140199;29;20298;-80
2022/04/03 06:30:49;;;;;;;1.00;1.00;;;1.00;99.90;;;;;;6123786;29;20312;-78
2022/04/03 06:33:54;;;;;;;0.90;0.90;;;1.10;99.90;;;;;;6140392;29;20320;-78
2022/04/03 06:37:01;;;;;;;1.70;0.80;;;1.40;99.90;;;;;;6140885;29;20304;-79
2022/04/03 06:40:09;;;;;;;2.33;0.80;;;1.30;99.90;;;;;;6140359;29;20452;-79
2022/04/03 06:43:18;;;;;;;5.93;0.70;;;1.30;99.90;;;;;;6140190;28;20300;-79
2022/04/03 06:46:23;;;;;;;0.77;0.70;;;1.30;99.90;;;;;;6140602;29;20291;-79
2022/04/03 06:49:31;;;;;;;1.37;0.97;;;1.30;99.90;;;;;;6139755;29;20580;-79
2022/04/03 06:52:38;;;;;;;0.90;0.90;;;1.40;99.90;;;;;;6122961;29;20296;-79
2022/04/03 06:55:43;;;;;;;1.00;1.00;;;1.50;99.90;;;;;;6140328;29;20307;-79
2022/04/03 06:58:48;;;;;;;6.00;1.07;;;1.60;99.90;;;;;;6138625;29;20306;-79
2022/04/03 07:01:54;;;;;;;0.77;0.77;;;1.80;99.90;;;;;;6140332;29;20590;-79
2022/04/03 07:04:59;;;;;;;0.97;0.97;;;1.90;99.90;;;;;;6139680;29;20317;-80
2022/04/03 07:08:07;;;;;;;1.33;0.87;;;2.00;99.90;;;;;;6139468;29;20289;-81
2022/04/03 07:11:13;;;;;;;0.80;0.80;;;2.20;99.90;;;;;;6128938;28;20305;-80
2022/04/03 07:14:18;;;;;;;1.70;1.10;;;2.20;99.90;;;;;;6142512;28;20297;-79
2022/04/03 07:17:23;;;;;;;2.03;0.90;;;2.10;99.90;;;;;;6186843;28;20293;-80
2022/04/03 07:20:28;;;;;;;0.80;0.80;;;2.20;99.90;;;;;;6187582;28;20289;-80
2022/04/03 07:23:35;;;;;;;1.50;0.80;;;2.20;99.90;;;;;;6187141;28;20295;-79
2022/04/03 07:26:40;;;;;;;1.00;1.00;;;2.30;99.90;;;;;;6163225;28;20398;-79
2022/04/03 07:29:46;;;;;;;1.20;0.90;;;2.30;99.90;;;;;;6162998;28;20302;-79
2022/04/03 07:32:51;;;;;;;0.90;0.90;;;2.30;99.90;;;;;;6162865;28;20599;-79
2022/04/03 07:35:57;;;;;;;0.80;0.80;;;2.40;99.90;;;;;;6163330;28;20297;-79
2022/04/03 07:39:03;;;;;;;2.60;1.20;;;2.30;99.90;;;;;;6162526;28;20306;-80
2022/04/03 07:42:10;;;;;;;0.83;0.83;;;2.40;99.90;;;;;;6162547;28;20294;-80
2022/04/03 07:45:16;;;;;;;1.00;0.90;;;2.40;99.90;;;;;;6163123;28;20294;-79
2022/04/03 07:48:21;;;;;;;0.80;0.80;;;2.40;99.90;;;;;;6162648;28;20468;-80
2022/04/03 07:51:27;;;;;;;1.40;0.93;;;2.50;99.90;;;;;;6163228;28;20298;-79
2022/04/03 07:54:35;;;;;;;1.00;0.87;;;2.50;99.90;;;;;;6162275;29;20303;-79
2022/04/03 07:57:40;;;;;;;0.87;0.87;;;2.50;99.90;;;;;;6185951;28;20293;-80
2022/04/03 08:00:46;;;;;;;4.10;0.83;;;2.60;99.90;;;;;;6186613;28;20289;-79
2022/04/03 08:03:51;;;;;;;0.70;0.70;;;2.60;99.90;;;;;;6185948;28;20293;-79
2022/04/03 08:06:57;;;;;;;0.80;0.80;;;2.70;99.90;;;;;;6186262;28;20380;-79
2022/04/03 08:10:06;;;;;;;0.63;0.60;;;2.70;99.90;;;;;;6173132;28;20302;-80
2022/04/03 08:13:14;;;;;;;1.20;0.70;;;2.80;99.90;;;;;;6161639;28;20298;-79
2022/04/03 08:16:19;;;;;;;1.40;0.90;;;2.80;99.90;;;;;;6145101;29;20518;-79
2022/04/03 08:19:25;;;;;;;4.80;1.00;;;2.80;99.90;;;;;;6137759;28;20290;-79
2022/04/03 08:22:30;;;;;;;0.80;0.80;;;2.90;99.90;;;;;;6138378;28;20300;-80
2022/04/03 08:25:39;;;;;;;2.17;0.80;;;2.90;99.90;;;;;;6137127;28;20295;-80
2022/04/03 08:28:45;;;;;;;1.30;0.80;;;2.90;99.90;;;;;;6145647;28;20302;-80
2022/04/03 08:31:53;;;;;;;2.17;0.87;;;3.00;99.90;;;;;;6146208;29;20307;-80
2022/04/03 08:34:59;;;;;;;2.13;0.87;;;3.00;99.90;;;;;;6145787;28;20506;-80
2022/04/03 08:38:05;;;;;;;3.00;0.80;;;3.00;99.90;;;;;;6137514;28;20310;-79
2022/04/03 08:41:14;;;;;;;0.90;0.90;;;3.10;99.90;;;;;;6141622;28;20351;-81
2022/04/03 08:44:20;;;;;;;3.00;0.77;;;3.10;99.90;;;;;;6166605;29;20310;-80
2022/04/03 08:47:27;;;;;;;0.70;0.70;;;3.10;99.90;;;;;;6149059;28;20455;-80
2022/04/03 08:50:36;;;;;;;0.73;0.73;;;3.20;99.90;;;;;;6167124;28;20320;-81
2022/04/03 08:53:41;;;;;;;0.80;0.80;;;3.20;99.90;;;;;;6166715;28;20299;-81
2022/04/03 08:56:48;;;;;;;1.13;0.83;;;3.20;99.90;;;;;;6166278;28;20306;-81
2022/04/03 08:59:53;;;;;;;0.87;0.70;;;3.20;99.90;;;;;;6165245;28;20312;-81
2022/04/03 09:02:59;;;;;;;1.30;0.73;;;3.30;99.90;;;;;;6164349;28;20305;-87
2022/04/03 09:06:16;;;;;;;1.07;0.70;;;3.30;99.80;;;;;;6166416;28;20299;-82
2022/04/03 09:09:22;;;;;;;2.50;0.70;;;3.40;98.80;;;;;;6163252;28;20309;-80
2022/04/03 09:12:28;;;;;;;0.60;0.60;;;3.40;98.30;;;;;;6141717;28;20295;-81
2022/04/03 09:15:34;;;;;;;0.60;0.60;;;3.40;98.30;;;;;;6165710;28;20293;-81
2022/04/03 09:18:47;;;;;;;0.97;0.70;;;3.50;98.30;;;;;;6188460;28;20579;-81
2022/04/03 09:21:53;;;;;;;0.60;0.60;;;3.50;98.30;;;;;;6189733;28;20302;-80
2022/04/03 09:24:58;;;;;;;0.80;0.80;;;3.60;97.40;;;;;;6189282;28;20301;-80
2022/04/03 09:28:07;;;;;;;0.70;0.70;;;3.70;97.70;;;;;;6189219;28;20301;-81
2022/04/03 09:31:26;;;;;;;3.40;0.70;;;3.70;97.40;;;;;;6189861;28;20327;-80
2022/04/03 09:34:33;;;;;;;0.77;0.77;;;3.70;97.20;;;;;;6188646;28;20559;-82
2022/04/03 09:37:38;;;;;;;2.03;0.57;;;3.80;97.40;;;;;;6187298;28;21186;-81
2022/04/03 09:40:45;;;;;;;2.43;0.77;;;3.90;96.50;;;;;;6189428;28;20291;-81
2022/04/03 09:43:51;;;;;;;0.70;0.70;;;3.90;96.30;;;;;;6189223;28;20491;-80
2022/04/03 09:47:16;;;;;;;2.00;0.70;;;3.90;96.20;;;;;;6189605;28;20294;-79
2022/04/03 09:50:22;;;;;;;0.70;0.70;;;4.00;96.20;;;;;;6189075;28;20297;-80
2022/04/03 09:53:28;;;;;;;3.03;0.63;;;4.10;96.10;;;;;;6187951;28;20301;-80
2022/04/03 09:56:37;;;;;;;0.70;0.70;;;4.10;95.70;;;;;;6188151;28;20290;-82
2022/04/03 09:59:51;;;;;;;2.13;0.77;;;4.20;95.40;;;;;;6189359;28;20307;-82
2022/04/03 10:03:02;;;;;;;0.60;0.60;;;4.20;95.10;;;;;;6188327;28;20302;-80
2022/04/03 10:06:07;;;;;;;0.60;0.60;;;4.30;94.80;;;;;;6189447;28;20295;-78
2022/04/03 10:09:15;;;;;;;3.13;0.90;;;4.40;94.30;;;;;;6188560;28;20301;-81
2022/04/03 10:12:23;;;;;;;0.80;0.80;;;4.60;93.50;;;;;;6165595;28;20294;-84
2022/04/03 10:15:30;;;;;;;0.87;0.80;;;4.70;93.40;;;;;;6164684;28;20295;-87
2022/04/03 10:18:35;;;;;;;1.50;0.60;;;4.70;93.10;;;;;;6165151;28;20295;-84
2022/04/03 10:21:46;;;;;;;3.10;0.50;;;4.70;93.10;;;;;;6164868;28;20291;-84
2022/04/03 10:24:56;;;;;;;0.60;0.60;;;4.80;92.20;;;;;;6179294;28;20307;-82
2022/04/03 10:28:05;;;;;;;1.23;0.60;;;4.90;91.80;;;;;;6163461;28;20292;-85
2022/04/03 10:31:17;;;;;;;0.70;0.70;;;4.90;91.50;;;;;;6181432;28;20295;-88
2022/04/03 10:34:23;;;;;;;0.67;0.67;;;4.90;91.20;;;;;;6147586;29;20295;-86
2022/04/03 10:37:34;;;;;;;0.60;0.60;;;5.10;91.40;;;;;;6180790;28;20304;-84
2022/04/03 10:40:39;;;;;;;2.20;0.73;;;5.10;90.80;;;;;;6148453;28;20300;-82
2022/04/03 10:43:45;;;;;;;0.60;0.60;;;5.10;87.90;;;;;;6164087;28;20303;-86
2022/04/03 10:47:21;;;;;;;0.87;0.63;;;5.20;88.90;;;;;;6165023;28;20301;-81
2022/04/03 10:50:26;;;;;;;2.43;0.60;;;5.30;87.00;;;;;;6154794;28;20305;-84
2022/04/03 10:53:33;;;;;;;2.00;0.87;;;5.30;85.10;;;;;;6139766;28;20306;-80
2022/04/03 10:56:39;;;;;;;3.83;0.87;;;5.40;85.30;;;;;;6140728;28;20293;-80
2022/04/03 10:59:44;;;;;;;2.00;0.90;;;5.60;78.60;;;;;;6140209;28;20301;-80
2022/04/03 11:02:55;;;;;;;2.73;0.73;;;5.80;72.70;;;;;;6139337;28;20301;-78
2022/04/03 11:06:20;;;;;;;0.60;0.60;;;5.80;72.20;;;;;;6139991;29;20297;-79
2022/04/03 11:09:25;;;;;;;2.27;1.10;;;5.80;70.50;;;;;;6139360;28;20306;-80
2022/04/03 11:12:45;;;;;;;1.70;0.60;;;5.90;68.10;;;;;;6130400;28;20302;-83
2022/04/03 11:15:51;;;;;;;1.63;0.60;;;6.00;68.30;;;;;;6167191;28;20514;-79
2022/04/03 11:19:04;;;;;;;1.80;0.60;;;6.00;65.30;;;;;;6186820;28;20300;-79
2022/04/03 11:22:16;;;;;;;2.67;0.60;;;6.10;64.60;;;;;;6186412;28;20305;-81
2022/04/03 11:25:22;;;;;;;1.07;0.53;;;6.20;65.10;;;;;;6169897;28;20300;-80
2022/04/03 11:28:27;;;;;;;1.40;0.60;;;6.40;60.00;;;;;;6186705;28;20289;-81
2022/04/03 11:31:34;;;;;;;0.97;0.60;;;6.40;56.80;;;;;;6187231;28;20296;-80
2022/04/03 11:34:41;;;;;;;0.43;0.43;;;6.50;54.90;;;;;;6186203;28;20313;-80
2022/04/03 11:37:46;;;;;;;4.43;0.60;;;6.50;53.10;;;;;;6177352;28;20462;-80
2022/04/03 11:40:54;;;;;;;3.03;0.50;;;6.70;53.30;;;;;;6187170;28;20301;-80
2022/04/03 11:44:02;;;;;;;0.50;0.50;;;6.80;53.70;;;;;;6186306;28;20465;-80
2022/04/03 11:47:21;;;;;;;3.27;0.60;;;6.80;53.20;;;;;;6185906;28;20294;-80
2022/04/03 11:50:29;;;;;;;3.67;0.83;;;6.90;53.50;;;;;;6201721;28;20297;-80
2022/04/03 11:53:34;;;;;;;1.07;0.60;;;6.90;51.80;;;;;;6186416;28;20296;-81
2022/04/03 11:56:40;;;;;;;0.50;0.50;;;7.00;51.60;;;;;;6169622;28;20308;-79
2022/04/03 11:59:55;;;;;;;2.00;0.70;;;7.00;51.80;;;;;;6200715;28;20302;-80
2022/04/03 12:03:03;;;;;;;0.60;0.60;;;7.00;51.50;;;;;;6185784;28;20301;-80
2022/04/03 12:06:14;;;;;;;0.53;0.53;;;7.10;50.50;;;;;;6186511;28;20298;-80
2022/04/03 12:09:24;;;;;;;0.70;0.70;;;7.10;51.00;;;;;;6185757;28;20624;-80
2022/04/03 12:12:30;;;;;;;4.83;0.70;;;7.20;51.10;;;;;;6185787;28;20400;-81
2022/04/03 12:15:36;;;;;;;1.40;0.83;;;7.20;50.50;;;;;;6185762;28;20301;-81
2022/04/03 12:19:03;;;;;;;0.70;0.70;;;7.30;50.90;;;;;;6185735;28;20482;-81
2022/04/03 12:22:14;;;;;;;1.53;0.67;;;7.30;50.60;;;;;;6185566;28;20298;-81
2022/04/03 12:25:20;;;;;;;0.60;0.60;;;7.30;50.30;;;;;;6186635;28;20301;-81
2022/04/03 12:28:25;;;;;;;4.28;0.80;;;7.30;50.30;;;;;;6185393;28;20615;-81
2022/04/03 12:31:33;;;;;;;1.83;0.63;;;7.40;50.90;;;;;;6184827;28;20289;-81
2022/04/03 12:34:41;;;;;;;0.93;0.70;;;7.40;50.60;;;;;;6185455;28;20568;-81
2022/04/03 12:37:48;;;;;;;3.30;0.60;;;7.40;50.20;;;;;;6161492;28;20318;-82
2022/04/03 12:40:58;;;;;;;3.60;0.80;;;7.60;50.10;;;;;;6185700;28;20297;-82
2022/04/03 12:44:04;;;;;;;0.50;0.50;;;7.50;49.90;;;;;;6185001;28;20302;-82
2022/04/03 12:47:17;;;;;;;1.33;0.90;;;7.50;48.40;;;;;;6168020;28;20297;-82
2022/04/03 12:50:24;;;;;;;0.60;0.60;;;7.50;48.70;;;;;;6185949;28;20293;-82
2022/04/03 12:53:31;;;;;;;1.60;0.70;;;7.70;48.20;;;;;;6185081;28;20302;-82
2022/04/03 12:59:56;;;;;;;3.92;0.60;;;7.70;48.50;;;;;;6184504;28;20290;-81
2022/04/03 13:03:09;;;;;;;4.50;0.60;;;7.70;47.30;;;;;;6169987;28;20481;-83
2022/04/03 13:06:23;;;;;;;0.68;0.60;;;7.70;47.20;;;;;;6185995;28;20298;-80
2022/04/03 13:09:30;;;;;;;2.33;0.90;;;7.70;47.00;;;;;;6161188;28;20605;-81
2022/04/03 13:12:35;;;;;;;0.95;0.68;;;7.60;46.70;;;;;;6160362;28;20294;-81
2022/04/03 13:15:41;;;;;;;0.70;0.70;;;7.70;47.70;;;;;;6149260;28;20303;-80
2022/04/03 13:18:47;;;;;;;0.60;0.60;;;7.80;47.00;;;;;;6137058;29;20298;-81
2022/04/03 13:21:54;;;;;;;0.50;0.50;;;7.90;47.10;;;;;;6137855;29;20255;-79
2022/04/03 13:25:01;;;;;;;2.08;0.73;;;7.70;45.50;;;;;;6136978;29;20299;-79
2022/04/03 13:28:07;;;;;;;2.95;0.80;;;7.70;45.90;;;;;;6141827;28;20298;-81
2022/04/03 13:31:12;;;;;;;0.52;0.52;;;7.60;45.60;;;;;;6140555;29;20294;-80
2022/04/03 13:34:19;;;;;;;1.20;0.60;;;7.60;46.00;;;;;;6140127;28;20307;-79
2022/04/03 13:37:24;;;;;;;3.85;0.80;;;7.60;46.50;;;;;;6124765;29;20303;-79
2022/04/03 13:40:31;;;;;;;7.05;0.90;;;7.70;46.30;;;;;;6141422;29;20291;-80
2022/04/03 13:43:37;;;;;;;0.88;0.70;;;7.80;46.80;;;;;;6141180;29;20300;-80
2022/04/03 13:46:42;;;;;;;1.85;0.80;;;7.70;46.90;;;;;;6142083;29;20504;-79
2022/04/03 13:49:48;;;;;;;0.70;0.70;;;7.80;46.70;;;;;;6141245;29;20475;-79
2022/04/03 13:52:54;;;;;;;0.65;0.65;;;7.70;46.80;;;;;;6141490;29;20299;-80
2022/04/03 13:56:01;;;;;;;0.80;0.60;;;7.60;47.10;;;;;;6141685;28;20299;-78
2022/04/03 13:59:07;;;;;;;0.70;0.70;;;7.70;47.20;;;;;;6141248;28;20291;-80
2022/04/03 14:02:15;;;;;;;0.85;0.70;;;7.70;47.50;;;;;;6141207;28;20290;-80
2022/04/03 14:05:20;;;;;;;1.10;0.75;;;7.60;46.40;;;;;;6141604;28;20304;-79
2022/04/03 14:08:27;;;;;;;0.60;0.60;;;7.60;46.90;;;;;;6141142;28;20465;-78
2022/04/03 14:11:34;;;;;;;0.85;0.80;;;7.70;47.30;;;;;;6141399;28;20465;-79
2022/04/03 14:14:40;;;;;;;0.60;0.60;;;7.70;47.90;;;;;;6145185;28;20302;-80
2022/04/03 14:17:45;;;;;;;1.45;0.70;;;7.60;46.80;;;;;;6203578;28;20294;-79
2022/04/03 14:20:51;;;;;;;3.08;0.70;;;7.60;47.00;;;;;;6189639;28;20576;-79
2022/04/03 14:23:57;;;;;;;1.45;0.70;;;7.60;47.40;;;;;;6188219;28;20301;-78
2022/04/03 14:27:05;;;;;;;1.33;0.70;;;7.60;47.30;;;;;;6188293;28;20588;-83
2022/04/03 14:30:13;;;;;;;2.92;0.70;;;7.70;47.20;;;;;;6171606;28;20294;-84
2022/04/03 14:33:18;;;;;;;1.77;0.68;;;7.60;46.90;;;;;;6187910;28;20298;-82
2022/04/03 14:36:24;;;;;;;1.80;1.23;;;7.60;47.10;;;;;;6188705;28;20281;-81
2022/04/03 14:39:32;;;;;;;0.80;0.80;;;7.50;47.50;;;;;;6187497;28;20294;-84
2022/04/03 14:42:39;;;;;;;2.08;0.80;;;7.50;47.10;;;;;;6187904;28;20293;-81
2022/04/03 14:45:50;;;;;;;1.75;0.60;;;7.50;46.80;;;;;;6180098;28;20298;-83
2022/04/03 14:48:56;;;;;;;0.70;0.70;;;7.40;46.10;;;;;;6186607;28;20298;-83
2022/04/03 14:52:02;;;;;;;0.60;0.60;;;7.40;46.30;;;;;;6164493;28;20290;-85
2022/04/03 14:55:09;;;;;;;1.33;0.80;;;7.40;46.90;;;;;;6202285;28;20293;-83
2022/04/03 14:58:16;;;;;;;1.65;0.60;;;7.50;47.00;;;;;;6186397;28;20816;-82
2022/04/03 15:01:21;;;;;;;0.73;0.73;;;7.60;46.40;;;;;;6188237;28;20334;-82
2022/04/03 15:04:27;;;;;;;0.77;0.70;;;7.50;47.00;;;;;;6162929;28;20295;-84
2022/04/03 15:07:33;;;;;;;1.20;0.73;;;7.40;47.20;;;;;;6179609;28;20306;-78
2022/04/03 15:10:38;;;;;;;0.63;0.63;;;7.30;46.90;;;;;;6177189;28;20294;-81
2022/04/03 15:13:45;;;;;;;1.00;0.60;;;7.30;46.70;;;;;;6163129;28;20306;-73
2022/04/03 15:16:50;;;;;;;1.73;0.70;;;7.30;47.20;;;;;;6163781;28;20593;-80
2022/04/03 15:19:55;;;;;;;1.20;0.70;;;7.40;47.00;;;;;;6161817;29;20683;-77
2022/04/03 15:23:01;;;;;;;3.83;0.85;;;7.40;47.40;;;;;;6139850;28;20311;-87
2022/04/03 15:26:10;;;;;;;0.60;0.60;;;7.30;47.90;;;;;;6154798;28;20303;-81
2022/04/03 15:29:17;;;;;;;0.80;0.80;;;7.60;46.90;;;;;;6139945;28;20298;-80
2022/04/03 15:32:25;;;;;;;8.93;1.02;;;7.80;46.40;;;;;;6170240;28;20298;-80
2022/04/03 15:35:29;;;;;;;5.15;1.00;;;8.10;46.30;;;;;;6139810;28;20300;-85
2022/04/03 15:38:39;;;;;;;2.28;0.90;;;7.80;46.20;;;;;;6137038;28;20299;-84
2022/04/03 15:41:51;;;;;;;3.03;0.90;;;7.60;46.50;;;;;;6139438;28;20578;-85
2022/04/03 15:48:37;;;;;;;3.33;0.80;;;7.40;46.20;;;;;;6164202;28;20293;-87
2022/04/03 15:51:47;;;;;;;1.42;0.75;;;7.40;46.90;;;;;;6163588;28;20294;-82
